sensor_id;sensor_type;location;lat;lon;timestamp;P1;durP1;ratioP1;P2;durP2;ratioP2
19030;SDS011;9648;51.130;13.978;2023-02-28T00:00:48;11.30;;;6.57;;
19030;SDS011;9648;51.130;13.978;2023-02-28T00:03:15;10.32;;;6.53;;
19030;SDS011;9648;51.130;13.978;2023-02-28T00:05:42;9.98;;;6.22;;
19030;SDS011;9648;51.130;13.978;2023-02-28T00:08:08;8.82;;;5.95;;
19030;SDS011;9648;51.130;13.978;2023-02-28T00:10:35;9.60;;;6.05;;
19030;SDS011;9648;51.130;13.978;2023-02-28T00:13:02;9.43;;;6.30;;
19030;SDS011;9648;51.130;13.978;2023-02-28T00:15:32;11.00;;;6.40;;
19030;SDS011;9648;51.130;13.978;2023-02-28T00:17:59;8.50;;;5.87;;
19030;SDS011;9648;51.130;13.978;2023-02-28T00:20:26;10.93;;;6.30;;
19030;SDS011;9648;51.130;13.978;2023-02-28T00:22:53;11.35;;;6.65;;
19030;SDS011;9648;51.130;13.978;2023-02-28T00:25:21;9.20;;;5.45;;
19030;SDS011;9648;51.130;13.978;2023-02-28T00:27:49;9.87;;;5.70;;
19030;SDS011;9648;51.130;13.978;2023-02-28T00:30:17;9.68;;;5.65;;
19030;SDS011;9648;51.130;13.978;2023-02-28T00:32:45;9.10;;;5.70;;
19030;SDS011;9648;51.130;13.978;2023-02-28T00:35:12;8.00;;;5.28;;
19030;SDS011;9648;51.130;13.978;2023-02-28T00:37:39;8.57;;;6.07;;
19030;SDS011;9648;51.130;13.978;2023-02-28T00:40:06;10.85;;;6.78;;
19030;SDS011;9648;51.130;13.978;2023-02-28T00:42:36;13.27;;;7.50;;
19030;SDS011;9648;51.130;13.978;2023-02-28T00:45:03;11.40;;;7.27;;
19030;SDS011;9648;51.130;13.978;2023-02-28T00:47:30;11.10;;;6.78;;
19030;SDS011;9648;51.130;13.978;2023-02-28T00:49:59;12.50;;;7.10;;
19030;SDS011;9648;51.130;13.978;2023-02-28T00:52:26;10.38;;;7.03;;
19030;SDS011;9648;51.130;13.978;2023-02-28T00:54:53;10.52;;;6.70;;
19030;SDS011;9648;51.130;13.978;2023-02-28T00:57:19;11.90;;;6.65;;
19030;SDS011;9648;51.130;13.978;2023-02-28T00:59:46;12.80;;;7.43;;
19030;SDS011;9648;51.130;13.978;2023-02-28T01:02:13;10.93;;;7.10;;
19030;SDS011;9648;51.130;13.978;2023-02-28T01:04:40;11.85;;;7.05;;
19030;SDS011;9648;51.130;13.978;2023-02-28T01:07:08;12.67;;;6.93;;
19030;SDS011;9648;51.130;13.978;2023-02-28T01:09:35;12.18;;;7.40;;
19030;SDS011;9648;51.130;13.978;2023-02-28T01:12:01;12.55;;;7.88;;
19030;SDS011;9648;51.130;13.978;2023-02-28T01:14:28;10.95;;;7.22;;
19030;SDS011;9648;51.130;13.978;2023-02-28T01:16:55;12.15;;;7.35;;
19030;SDS011;9648;51.130;13.978;2023-02-28T01:19:22;13.65;;;7.50;;
19030;SDS011;9648;51.130;13.978;2023-02-28T01:21:49;11.68;;;7.50;;
19030;SDS011;9648;51.130;13.978;2023-02-28T01:24:17;12.90;;;7.13;;
19030;SDS011;9648;51.130;13.978;2023-02-28T01:26:44;11.85;;;7.30;;
19030;SDS011;9648;51.130;13.978;2023-02-28T01:29:10;13.25;;;7.50;;
19030;SDS011;9648;51.130;13.978;2023-02-28T01:31:37;12.70;;;7.45;;
19030;SDS011;9648;51.130;13.978;2023-02-28T01:34:04;12.10;;;7.57;;
19030;SDS011;9648;51.130;13.978;2023-02-28T01:36:30;12.93;;;8.38;;
19030;SDS011;9648;51.130;13.978;2023-02-28T01:38:57;13.80;;;7.80;;
19030;SDS011;9648;51.130;13.978;2023-02-28T01:41:26;12.90;;;8.10;;
19030;SDS011;9648;51.130;13.978;2023-02-28T01:44:02;12.43;;;7.95;;
19030;SDS011;9648;51.130;13.978;2023-02-28T01:46:31;13.63;;;8.15;;
19030;SDS011;9648;51.130;13.978;2023-02-28T01:49:00;15.50;;;8.30;;
19030;SDS011;9648;51.130;13.978;2023-02-28T01:51:32;13.38;;;8.20;;
19030;SDS011;9648;51.130;13.978;2023-02-28T01:54:04;13.63;;;8.15;;
19030;SDS011;9648;51.130;13.978;2023-02-28T01:56:40;17.17;;;8.48;;
19030;SDS011;9648;51.130;13.978;2023-02-28T01:59:11;14.18;;;8.57;;
19030;SDS011;9648;51.130;13.978;2023-02-28T02:01:43;15.15;;;8.85;;
19030;SDS011;9648;51.130;13.978;2023-02-28T02:04:09;15.13;;;8.32;;
19030;SDS011;9648;51.130;13.978;2023-02-28T02:06:37;14.52;;;8.75;;
19030;SDS011;9648;51.130;13.978;2023-02-28T02:09:08;14.13;;;8.52;;
19030;SDS011;9648;51.130;13.978;2023-02-28T02:11:35;13.60;;;7.95;;
19030;SDS011;9648;51.130;13.978;2023-02-28T02:17:10;12.73;;;8.38;;
19030;SDS011;9648;51.130;13.978;2023-02-28T02:19:57;13.20;;;8.18;;
19030;SDS011;9648;51.130;13.978;2023-02-28T02:23:01;12.43;;;8.03;;
19030;SDS011;9648;51.130;13.978;2023-02-28T02:25:45;12.50;;;8.25;;
19030;SDS011;9648;51.130;13.978;2023-02-28T02:28:27;12.18;;;8.32;;
19030;SDS011;9648;51.130;13.978;2023-02-28T02:31:16;14.50;;;8.60;;
19030;SDS011;9648;51.130;13.978;2023-02-28T02:34:10;14.68;;;8.98;;
19030;SDS011;9648;51.130;13.978;2023-02-28T02:37:08;14.85;;;8.60;;
19030;SDS011;9648;51.130;13.978;2023-02-28T02:39:54;14.35;;;8.80;;
19030;SDS011;9648;51.130;13.978;2023-02-28T02:42:29;15.13;;;9.35;;
19030;SDS011;9648;51.130;13.978;2023-02-28T02:45:04;13.70;;;8.65;;
19030;SDS011;9648;51.130;13.978;2023-02-28T02:47:35;15.40;;;8.63;;
19030;SDS011;9648;51.130;13.978;2023-02-28T02:50:05;14.80;;;9.27;;
19030;SDS011;9648;51.130;13.978;2023-02-28T02:52:38;14.10;;;9.05;;
19030;SDS011;9648;51.130;13.978;2023-02-28T02:55:09;16.65;;;9.40;;
19030;SDS011;9648;51.130;13.978;2023-02-28T02:57:40;15.50;;;9.35;;
19030;SDS011;9648;51.130;13.978;2023-02-28T03:00:12;17.77;;;9.73;;
19030;SDS011;9648;51.130;13.978;2023-02-28T03:02:40;13.65;;;8.68;;
19030;SDS011;9648;51.130;13.978;2023-02-28T03:05:12;13.23;;;8.55;;
19030;SDS011;9648;51.130;13.978;2023-02-28T03:07:44;15.48;;;8.77;;
19030;SDS011;9648;51.130;13.978;2023-02-28T03:16:07;13.60;;;7.72;;
19030;SDS011;9648;51.130;13.978;2023-02-28T03:19:01;12.32;;;7.90;;
19030;SDS011;9648;51.130;13.978;2023-02-28T03:21:38;11.32;;;7.00;;
19030;SDS011;9648;51.130;13.978;2023-02-28T03:24:10;10.55;;;6.93;;
19030;SDS011;9648;51.130;13.978;2023-02-28T03:26:41;9.77;;;6.60;;
19030;SDS011;9648;51.130;13.978;2023-02-28T03:29:13;10.85;;;6.80;;
19030;SDS011;9648;51.130;13.978;2023-02-28T03:31:48;12.33;;;6.53;;
19030;SDS011;9648;51.130;13.978;2023-02-28T03:34:19;11.77;;;7.77;;
19030;SDS011;9648;51.130;13.978;2023-02-28T03:36:53;13.00;;;7.43;;
19030;SDS011;9648;51.130;13.978;2023-02-28T03:39:24;12.40;;;7.90;;
19030;SDS011;9648;51.130;13.978;2023-02-28T03:41:58;12.80;;;8.07;;
19030;SDS011;9648;51.130;13.978;2023-02-28T03:44:29;12.50;;;7.35;;
19030;SDS011;9648;51.130;13.978;2023-02-28T03:47:00;12.20;;;7.47;;
19030;SDS011;9648;51.130;13.978;2023-02-28T03:49:30;13.57;;;7.85;;
19030;SDS011;9648;51.130;13.978;2023-02-28T03:52:02;11.63;;;7.85;;
19030;SDS011;9648;51.130;13.978;2023-02-28T03:54:33;13.90;;;7.53;;
19030;SDS011;9648;51.130;13.978;2023-02-28T03:57:04;13.32;;;7.50;;
19030;SDS011;9648;51.130;13.978;2023-02-28T03:59:36;13.98;;;8.68;;
19030;SDS011;9648;51.130;13.978;2023-02-28T04:02:08;13.45;;;8.18;;
19030;SDS011;9648;51.130;13.978;2023-02-28T04:04:34;13.63;;;7.85;;
19030;SDS011;9648;51.130;13.978;2023-02-28T04:07:04;13.23;;;8.48;;
19030;SDS011;9648;51.130;13.978;2023-02-28T04:09:32;14.83;;;9.30;;
19030;SDS011;9648;51.130;13.978;2023-02-28T04:12:00;14.80;;;8.70;;
19030;SDS011;9648;51.130;13.978;2023-02-28T04:14:26;15.25;;;9.48;;
19030;SDS011;9648;51.130;13.978;2023-02-28T04:16:53;15.35;;;9.23;;
19030;SDS011;9648;51.130;13.978;2023-02-28T04:19:19;15.40;;;9.40;;
19030;SDS011;9648;51.130;13.978;2023-02-28T04:21:47;17.13;;;9.47;;
19030;SDS011;9648;51.130;13.978;2023-02-28T04:24:17;15.35;;;9.43;;
19030;SDS011;9648;51.130;13.978;2023-02-28T04:26:45;16.65;;;10.02;;
19030;SDS011;9648;51.130;13.978;2023-02-28T04:29:13;15.65;;;9.85;;
19030;SDS011;9648;51.130;13.978;2023-02-28T04:31:44;16.33;;;9.63;;
19030;SDS011;9648;51.130;13.978;2023-02-28T04:34:11;16.75;;;9.88;;
19030;SDS011;9648;51.130;13.978;2023-02-28T04:36:38;14.97;;;9.40;;
19030;SDS011;9648;51.130;13.978;2023-02-28T04:39:05;15.60;;;9.70;;
19030;SDS011;9648;51.130;13.978;2023-02-28T04:41:33;17.40;;;10.68;;
19030;SDS011;9648;51.130;13.978;2023-02-28T04:44:00;17.02;;;10.00;;
19030;SDS011;9648;51.130;13.978;2023-02-28T04:46:27;17.35;;;10.13;;
19030;SDS011;9648;51.130;13.978;2023-02-28T04:48:54;17.38;;;10.50;;
19030;SDS011;9648;51.130;13.978;2023-02-28T04:51:20;15.70;;;9.85;;
19030;SDS011;9648;51.130;13.978;2023-02-28T04:53:47;14.65;;;9.73;;
19030;SDS011;9648;51.130;13.978;2023-02-28T04:56:17;19.30;;;11.70;;
19030;SDS011;9648;51.130;13.978;2023-02-28T04:58:46;22.40;;;12.15;;
19030;SDS011;9648;51.130;13.978;2023-02-28T05:01:17;17.67;;;10.63;;
19030;SDS011;9648;51.130;13.978;2023-02-28T05:03:47;20.02;;;12.70;;
19030;SDS011;9648;51.130;13.978;2023-02-28T05:06:14;21.08;;;12.10;;
19030;SDS011;9648;51.130;13.978;2023-02-28T05:08:41;18.73;;;11.45;;
19030;SDS011;9648;51.130;13.978;2023-02-28T05:11:12;17.13;;;10.80;;
19030;SDS011;9648;51.130;13.978;2023-02-28T05:13:41;19.25;;;11.55;;
19030;SDS011;9648;51.130;13.978;2023-02-28T05:16:09;17.23;;;10.60;;
19030;SDS011;9648;51.130;13.978;2023-02-28T05:18:35;22.30;;;14.52;;
19030;SDS011;9648;51.130;13.978;2023-02-28T05:21:02;23.52;;;13.80;;
19030;SDS011;9648;51.130;13.978;2023-02-28T05:23:29;20.00;;;13.20;;
19030;SDS011;9648;51.130;13.978;2023-02-28T05:25:56;18.00;;;11.82;;
19030;SDS011;9648;51.130;13.978;2023-02-28T05:28:23;19.08;;;11.95;;
19030;SDS011;9648;51.130;13.978;2023-02-28T05:30:50;19.88;;;12.85;;
19030;SDS011;9648;51.130;13.978;2023-02-28T05:33:18;21.50;;;13.07;;
19030;SDS011;9648;51.130;13.978;2023-02-28T05:35:44;22.55;;;12.88;;
19030;SDS011;9648;51.130;13.978;2023-02-28T05:38:11;18.42;;;11.48;;
19030;SDS011;9648;51.130;13.978;2023-02-28T05:40:38;16.77;;;10.27;;
19030;SDS011;9648;51.130;13.978;2023-02-28T05:43:05;18.35;;;10.85;;
19030;SDS011;9648;51.130;13.978;2023-02-28T05:45:32;19.55;;;11.95;;
19030;SDS011;9648;51.130;13.978;2023-02-28T05:47:58;15.85;;;9.93;;
19030;SDS011;9648;51.130;13.978;2023-02-28T05:50:26;18.63;;;11.90;;
19030;SDS011;9648;51.130;13.978;2023-02-28T05:52:53;15.97;;;10.33;;
19030;SDS011;9648;51.130;13.978;2023-02-28T05:55:20;17.10;;;10.32;;
19030;SDS011;9648;51.130;13.978;2023-02-28T05:57:46;17.98;;;10.13;;
19030;SDS011;9648;51.130;13.978;2023-02-28T06:00:13;16.83;;;10.73;;
19030;SDS011;9648;51.130;13.978;2023-02-28T06:02:42;18.47;;;11.00;;
19030;SDS011;9648;51.130;13.978;2023-02-28T06:05:10;17.40;;;10.77;;
19030;SDS011;9648;51.130;13.978;2023-02-28T06:07:41;19.25;;;11.23;;
19030;SDS011;9648;51.130;13.978;2023-02-28T06:10:09;18.05;;;10.95;;
19030;SDS011;9648;51.130;13.978;2023-02-28T06:12:37;21.17;;;12.50;;
19030;SDS011;9648;51.130;13.978;2023-02-28T06:15:04;20.35;;;12.30;;
19030;SDS011;9648;51.130;13.978;2023-02-28T06:17:31;21.50;;;12.75;;
19030;SDS011;9648;51.130;13.978;2023-02-28T06:19:58;25.83;;;15.40;;
19030;SDS011;9648;51.130;13.978;2023-02-28T06:22:24;28.60;;;16.15;;
19030;SDS011;9648;51.130;13.978;2023-02-28T06:24:52;25.35;;;16.33;;
19030;SDS011;9648;51.130;13.978;2023-02-28T06:27:20;29.55;;;16.65;;
19030;SDS011;9648;51.130;13.978;2023-02-28T06:29:47;28.52;;;16.83;;
19030;SDS011;9648;51.130;13.978;2023-02-28T06:32:13;26.67;;;16.25;;
19030;SDS011;9648;51.130;13.978;2023-02-28T06:34:40;33.50;;;19.95;;
19030;SDS011;9648;51.130;13.978;2023-02-28T06:37:07;36.08;;;21.17;;
19030;SDS011;9648;51.130;13.978;2023-02-28T06:39:33;35.13;;;19.92;;
19030;SDS011;9648;51.130;13.978;2023-02-28T06:42:01;35.45;;;19.95;;
19030;SDS011;9648;51.130;13.978;2023-02-28T06:44:28;46.83;;;26.00;;
19030;SDS011;9648;51.130;13.978;2023-02-28T06:47:00;45.33;;;25.57;;
19030;SDS011;9648;51.130;13.978;2023-02-28T06:49:28;40.08;;;22.58;;
19030;SDS011;9648;51.130;13.978;2023-02-28T06:51:55;36.35;;;21.60;;
19030;SDS011;9648;51.130;13.978;2023-02-28T06:54:22;32.60;;;18.80;;
19030;SDS011;9648;51.130;13.978;2023-02-28T06:56:48;29.17;;;18.08;;
19030;SDS011;9648;51.130;13.978;2023-02-28T06:59:17;22.30;;;14.40;;
19030;SDS011;9648;51.130;13.978;2023-02-28T07:01:43;24.75;;;14.30;;
19030;SDS011;9648;51.130;13.978;2023-02-28T07:04:10;20.85;;;12.85;;
19030;SDS011;9648;51.130;13.978;2023-02-28T07:06:38;19.25;;;12.77;;
19030;SDS011;9648;51.130;13.978;2023-02-28T07:09:05;22.55;;;13.30;;
19030;SDS011;9648;51.130;13.978;2023-02-28T07:11:31;23.15;;;13.52;;
19030;SDS011;9648;51.130;13.978;2023-02-28T07:13:58;20.35;;;12.93;;
19030;SDS011;9648;51.130;13.978;2023-02-28T07:16:26;21.52;;;13.75;;
19030;SDS011;9648;51.130;13.978;2023-02-28T07:18:53;25.45;;;14.60;;
19030;SDS011;9648;51.130;13.978;2023-02-28T07:21:20;26.10;;;14.68;;
19030;SDS011;9648;51.130;13.978;2023-02-28T07:23:47;23.70;;;14.70;;
19030;SDS011;9648;51.130;13.978;2023-02-28T07:26:14;22.30;;;13.55;;
19030;SDS011;9648;51.130;13.978;2023-02-28T07:28:43;23.42;;;14.25;;
19030;SDS011;9648;51.130;13.978;2023-02-28T07:31:10;21.55;;;13.90;;
19030;SDS011;9648;51.130;13.978;2023-02-28T07:33:40;21.65;;;13.35;;
19030;SDS011;9648;51.130;13.978;2023-02-28T07:36:08;24.45;;;15.23;;
19030;SDS011;9648;51.130;13.978;2023-02-28T07:38:39;22.50;;;13.07;;
19030;SDS011;9648;51.130;13.978;2023-02-28T07:41:05;20.27;;;12.10;;
19030;SDS011;9648;51.130;13.978;2023-02-28T07:43:33;18.77;;;11.95;;
19030;SDS011;9648;51.130;13.978;2023-02-28T07:46:01;20.10;;;12.45;;
19030;SDS011;9648;51.130;13.978;2023-02-28T07:48:29;18.57;;;11.23;;
19030;SDS011;9648;51.130;13.978;2023-02-28T07:50:58;18.20;;;11.70;;
19030;SDS011;9648;51.130;13.978;2023-02-28T07:53:25;20.23;;;12.23;;
19030;SDS011;9648;51.130;13.978;2023-02-28T07:55:56;18.55;;;11.20;;
19030;SDS011;9648;51.130;13.978;2023-02-28T07:58:23;16.37;;;10.87;;
19030;SDS011;9648;51.130;13.978;2023-02-28T08:00:51;16.15;;;10.43;;
19030;SDS011;9648;51.130;13.978;2023-02-28T08:03:17;17.90;;;10.93;;
19030;SDS011;9648;51.130;13.978;2023-02-28T08:05:48;16.27;;;10.50;;
19030;SDS011;9648;51.130;13.978;2023-02-28T08:08:16;17.55;;;10.48;;
19030;SDS011;9648;51.130;13.978;2023-02-28T08:10:43;16.10;;;10.07;;
19030;SDS011;9648;51.130;13.978;2023-02-28T08:13:09;17.10;;;10.18;;
19030;SDS011;9648;51.130;13.978;2023-02-28T08:15:36;14.73;;;10.18;;
19030;SDS011;9648;51.130;13.978;2023-02-28T08:18:03;27.60;;;10.27;;
19030;SDS011;9648;51.130;13.978;2023-02-28T08:20:30;20.50;;;10.18;;
19030;SDS011;9648;51.130;13.978;2023-02-28T08:22:57;17.30;;;9.75;;
19030;SDS011;9648;51.130;13.978;2023-02-28T08:25:25;16.57;;;10.57;;
19030;SDS011;9648;51.130;13.978;2023-02-28T08:27:51;19.00;;;9.98;;
19030;SDS011;9648;51.130;13.978;2023-02-28T08:30:21;15.82;;;9.52;;
19030;SDS011;9648;51.130;13.978;2023-02-28T08:32:48;16.67;;;9.48;;
19030;SDS011;9648;51.130;13.978;2023-02-28T08:35:15;15.02;;;9.52;;
19030;SDS011;9648;51.130;13.978;2023-02-28T08:37:41;15.32;;;9.70;;
19030;SDS011;9648;51.130;13.978;2023-02-28T08:40:09;18.55;;;10.77;;
19030;SDS011;9648;51.130;13.978;2023-02-28T08:42:40;19.15;;;11.45;;
19030;SDS011;9648;51.130;13.978;2023-02-28T08:45:07;16.90;;;10.20;;
19030;SDS011;9648;51.130;13.978;2023-02-28T08:47:34;15.88;;;9.77;;
19030;SDS011;9648;51.130;13.978;2023-02-28T08:50:00;13.85;;;9.82;;
19030;SDS011;9648;51.130;13.978;2023-02-28T08:52:27;14.05;;;9.05;;
19030;SDS011;9648;51.130;13.978;2023-02-28T08:54:54;14.18;;;8.50;;
19030;SDS011;9648;51.130;13.978;2023-02-28T08:57:20;14.43;;;8.70;;
19030;SDS011;9648;51.130;13.978;2023-02-28T08:59:49;13.38;;;8.07;;
19030;SDS011;9648;51.130;13.978;2023-02-28T09:02:16;11.55;;;7.28;;
19030;SDS011;9648;51.130;13.978;2023-02-28T09:04:43;11.77;;;7.50;;
19030;SDS011;9648;51.130;13.978;2023-02-28T09:07:10;11.57;;;7.15;;
19030;SDS011;9648;51.130;13.978;2023-02-28T09:09:37;11.02;;;7.22;;
19030;SDS011;9648;51.130;13.978;2023-02-28T09:12:18;13.10;;;7.80;;
19030;SDS011;9648;51.130;13.978;2023-02-28T09:14:45;13.75;;;7.75;;
19030;SDS011;9648;51.130;13.978;2023-02-28T09:17:13;12.40;;;7.78;;
19030;SDS011;9648;51.130;13.978;2023-02-28T09:19:40;13.13;;;7.53;;
19030;SDS011;9648;51.130;13.978;2023-02-28T09:22:07;12.57;;;7.53;;
19030;SDS011;9648;51.130;13.978;2023-02-28T09:24:34;13.60;;;7.60;;
19030;SDS011;9648;51.130;13.978;2023-02-28T09:27:02;11.97;;;7.27;;
19030;SDS011;9648;51.130;13.978;2023-02-28T09:29:28;12.85;;;7.57;;
19030;SDS011;9648;51.130;13.978;2023-02-28T09:31:55;14.80;;;8.17;;
19030;SDS011;9648;51.130;13.978;2023-02-28T09:34:24;13.30;;;7.97;;
19030;SDS011;9648;51.130;13.978;2023-02-28T09:36:52;15.33;;;8.50;;
19030;SDS011;9648;51.130;13.978;2023-02-28T09:39:19;16.63;;;8.85;;
19030;SDS011;9648;51.130;13.978;2023-02-28T09:41:47;15.98;;;8.70;;
19030;SDS011;9648;51.130;13.978;2023-02-28T09:44:19;14.05;;;8.88;;
19030;SDS011;9648;51.130;13.978;2023-02-28T09:46:49;17.20;;;9.27;;
19030;SDS011;9648;51.130;13.978;2023-02-28T09:49:25;21.50;;;9.27;;
19030;SDS011;9648;51.130;13.978;2023-02-28T09:52:00;13.30;;;8.55;;
19030;SDS011;9648;51.130;13.978;2023-02-28T09:54:29;14.02;;;8.65;;
19030;SDS011;9648;51.130;13.978;2023-02-28T09:56:59;15.90;;;8.98;;
19030;SDS011;9648;51.130;13.978;2023-02-28T09:59:35;15.30;;;9.83;;
19030;SDS011;9648;51.130;13.978;2023-02-28T10:02:17;14.70;;;9.60;;
19030;SDS011;9648;51.130;13.978;2023-02-28T10:05:01;18.65;;;10.82;;
19030;SDS011;9648;51.130;13.978;2023-02-28T10:07:37;16.13;;;9.30;;
19030;SDS011;9648;51.130;13.978;2023-02-28T10:10:15;14.30;;;9.40;;
19030;SDS011;9648;51.130;13.978;2023-02-28T10:12:47;14.10;;;9.80;;
19030;SDS011;9648;51.130;13.978;2023-02-28T10:15:17;14.98;;;9.60;;
19030;SDS011;9648;51.130;13.978;2023-02-28T10:17:45;15.25;;;9.70;;
19030;SDS011;9648;51.130;13.978;2023-02-28T10:20:20;15.30;;;9.70;;
19030;SDS011;9648;51.130;13.978;2023-02-28T10:22:57;16.20;;;9.95;;
19030;SDS011;9648;51.130;13.978;2023-02-28T10:25:32;15.35;;;9.45;;
19030;SDS011;9648;51.130;13.978;2023-02-28T10:28:01;16.77;;;10.48;;
19030;SDS011;9648;51.130;13.978;2023-02-28T10:30:36;16.25;;;10.23;;
19030;SDS011;9648;51.130;13.978;2023-02-28T10:33:08;16.67;;;10.55;;
19030;SDS011;9648;51.130;13.978;2023-02-28T10:35:45;15.60;;;10.57;;
19030;SDS011;9648;51.130;13.978;2023-02-28T10:38:14;17.85;;;11.18;;
19030;SDS011;9648;51.130;13.978;2023-02-28T10:40:43;18.67;;;12.05;;
19030;SDS011;9648;51.130;13.978;2023-02-28T10:43:18;25.35;;;18.13;;
19030;SDS011;9648;51.130;13.978;2023-02-28T10:45:54;19.00;;;11.60;;
19030;SDS011;9648;51.130;13.978;2023-02-28T10:51:12;16.88;;;10.43;;
19030;SDS011;9648;51.130;13.978;2023-02-28T10:53:45;14.68;;;9.80;;
19030;SDS011;9648;51.130;13.978;2023-02-28T10:56:15;18.38;;;11.40;;
19030;SDS011;9648;51.130;13.978;2023-02-28T10:58:51;14.87;;;10.20;;
19030;SDS011;9648;51.130;13.978;2023-02-28T11:01:20;17.42;;;11.20;;
19030;SDS011;9648;51.130;13.978;2023-02-28T11:03:49;16.27;;;10.63;;
19030;SDS011;9648;51.130;13.978;2023-02-28T11:06:19;18.20;;;11.05;;
19030;SDS011;9648;51.130;13.978;2023-02-28T11:08:49;16.02;;;10.27;;
19030;SDS011;9648;51.130;13.978;2023-02-28T11:11:17;17.98;;;10.48;;
19030;SDS011;9648;51.130;13.978;2023-02-28T11:13:46;15.37;;;9.97;;
19030;SDS011;9648;51.130;13.978;2023-02-28T11:16:14;17.50;;;10.25;;
19030;SDS011;9648;51.130;13.978;2023-02-28T11:18:42;14.98;;;10.10;;
19030;SDS011;9648;51.130;13.978;2023-02-28T11:21:18;17.67;;;10.52;;
19030;SDS011;9648;51.130;13.978;2023-02-28T11:23:49;15.38;;;10.40;;
19030;SDS011;9648;51.130;13.978;2023-02-28T11:29:12;15.77;;;10.00;;
19030;SDS011;9648;51.130;13.978;2023-02-28T11:31:48;14.98;;;10.05;;
19030;SDS011;9648;51.130;13.978;2023-02-28T11:34:34;16.73;;;10.50;;
19030;SDS011;9648;51.130;13.978;2023-02-28T11:37:04;16.98;;;11.45;;
19030;SDS011;9648;51.130;13.978;2023-02-28T11:39:35;17.73;;;10.90;;
19030;SDS011;9648;51.130;13.978;2023-02-28T11:42:16;16.67;;;10.60;;
19030;SDS011;9648;51.130;13.978;2023-02-28T11:45:03;16.77;;;10.98;;
19030;SDS011;9648;51.130;13.978;2023-02-28T11:47:43;19.95;;;11.20;;
19030;SDS011;9648;51.130;13.978;2023-02-28T11:50:20;15.27;;;10.23;;
19030;SDS011;9648;51.130;13.978;2023-02-28T11:52:59;14.85;;;9.88;;
19030;SDS011;9648;51.130;13.978;2023-02-28T11:55:31;14.90;;;10.00;;
19030;SDS011;9648;51.130;13.978;2023-02-28T11:58:16;15.55;;;10.70;;
19030;SDS011;9648;51.130;13.978;2023-02-28T12:01:14;16.90;;;10.77;;
19030;SDS011;9648;51.130;13.978;2023-02-28T12:03:54;19.90;;;11.38;;
19030;SDS011;9648;51.130;13.978;2023-02-28T12:06:31;16.02;;;10.82;;
19030;SDS011;9648;51.130;13.978;2023-02-28T12:09:08;16.77;;;10.98;;
19030;SDS011;9648;51.130;13.978;2023-02-28T12:11:48;18.85;;;11.50;;
19030;SDS011;9648;51.130;13.978;2023-02-28T12:14:22;20.02;;;11.80;;
19030;SDS011;9648;51.130;13.978;2023-02-28T12:17:15;18.33;;;11.45;;
19030;SDS011;9648;51.130;13.978;2023-02-28T12:19:48;24.83;;;15.50;;
19030;SDS011;9648;51.130;13.978;2023-02-28T12:22:27;21.55;;;13.27;;
19030;SDS011;9648;51.130;13.978;2023-02-28T12:27:54;23.17;;;14.43;;
19030;SDS011;9648;51.130;13.978;2023-02-28T12:30:21;21.50;;;13.00;;
19030;SDS011;9648;51.130;13.978;2023-02-28T12:32:51;27.65;;;16.25;;
19030;SDS011;9648;51.130;13.978;2023-02-28T12:35:23;17.35;;;12.18;;
19030;SDS011;9648;51.130;13.978;2023-02-28T12:37:54;20.23;;;12.80;;
19030;SDS011;9648;51.130;13.978;2023-02-28T12:40:27;18.95;;;12.15;;
19030;SDS011;9648;51.130;13.978;2023-02-28T12:43:01;18.15;;;11.82;;
19030;SDS011;9648;51.130;13.978;2023-02-28T12:45:34;17.40;;;12.15;;
19030;SDS011;9648;51.130;13.978;2023-02-28T12:48:08;19.63;;;12.20;;
19030;SDS011;9648;51.130;13.978;2023-02-28T12:50:39;18.75;;;12.48;;
19030;SDS011;9648;51.130;13.978;2023-02-28T12:53:08;16.90;;;12.70;;
19030;SDS011;9648;51.130;13.978;2023-02-28T12:55:41;19.85;;;12.88;;
19030;SDS011;9648;51.130;13.978;2023-02-28T12:58:13;19.33;;;12.48;;
19030;SDS011;9648;51.130;13.978;2023-02-28T13:00:47;20.60;;;13.25;;
19030;SDS011;9648;51.130;13.978;2023-02-28T13:04:05;18.70;;;12.50;;
19030;SDS011;9648;51.130;13.978;2023-02-28T13:07:11;20.42;;;11.80;;
19030;SDS011;9648;51.130;13.978;2023-02-28T13:09:58;18.55;;;12.88;;
19030;SDS011;9648;51.130;13.978;2023-02-28T13:12:29;17.75;;;11.93;;
19030;SDS011;9648;51.130;13.978;2023-02-28T13:15:01;18.13;;;12.23;;
19030;SDS011;9648;51.130;13.978;2023-02-28T13:17:36;19.90;;;12.10;;
19030;SDS011;9648;51.130;13.978;2023-02-28T13:20:13;19.05;;;12.40;;
19030;SDS011;9648;51.130;13.978;2023-02-28T13:22:43;19.20;;;12.38;;
19030;SDS011;9648;51.130;13.978;2023-02-28T13:31:24;18.15;;;12.43;;
19030;SDS011;9648;51.130;13.978;2023-02-28T13:34:05;18.47;;;12.23;;
19030;SDS011;9648;51.130;13.978;2023-02-28T13:36:38;18.92;;;12.57;;
19030;SDS011;9648;51.130;13.978;2023-02-28T13:45:26;18.98;;;12.93;;
19030;SDS011;9648;51.130;13.978;2023-02-28T13:47:56;23.50;;;13.75;;
19030;SDS011;9648;51.130;13.978;2023-02-28T13:50:33;20.27;;;12.63;;
19030;SDS011;9648;51.130;13.978;2023-02-28T13:56:26;21.38;;;13.45;;
19030;SDS011;9648;51.130;13.978;2023-02-28T13:59:03;18.85;;;13.10;;
19030;SDS011;9648;51.130;13.978;2023-02-28T14:01:47;16.98;;;12.40;;
19030;SDS011;9648;51.130;13.978;2023-02-28T14:04:35;18.58;;;12.40;;
19030;SDS011;9648;51.130;13.978;2023-02-28T14:07:21;18.60;;;12.13;;
19030;SDS011;9648;51.130;13.978;2023-02-28T14:09:55;17.27;;;12.15;;
19030;SDS011;9648;51.130;13.978;2023-02-28T14:15:27;15.02;;;10.68;;
19030;SDS011;9648;51.130;13.978;2023-02-28T14:18:02;17.27;;;10.80;;
19030;SDS011;9648;51.130;13.978;2023-02-28T14:20:32;20.13;;;12.55;;
19030;SDS011;9648;51.130;13.978;2023-02-28T14:23:02;18.73;;;12.88;;
19030;SDS011;9648;51.130;13.978;2023-02-28T14:25:36;19.35;;;12.27;;
19030;SDS011;9648;51.130;13.978;2023-02-28T14:28:12;19.33;;;13.20;;
19030;SDS011;9648;51.130;13.978;2023-02-28T14:33:38;18.48;;;12.68;;
19030;SDS011;9648;51.130;13.978;2023-02-28T14:36:13;17.70;;;12.18;;
19030;SDS011;9648;51.130;13.978;2023-02-28T14:38:46;23.97;;;14.43;;
19030;SDS011;9648;51.130;13.978;2023-02-28T14:41:22;20.03;;;13.07;;
19030;SDS011;9648;51.130;13.978;2023-02-28T14:43:51;18.92;;;11.98;;
19030;SDS011;9648;51.130;13.978;2023-02-28T14:46:20;17.83;;;11.85;;
19030;SDS011;9648;51.130;13.978;2023-02-28T14:48:50;17.75;;;12.20;;
19030;SDS011;9648;51.130;13.978;2023-02-28T14:51:21;17.88;;;12.70;;
19030;SDS011;9648;51.130;13.978;2023-02-28T14:53:50;19.87;;;12.57;;
19030;SDS011;9648;51.130;13.978;2023-02-28T14:56:22;19.23;;;12.57;;
19030;SDS011;9648;51.130;13.978;2023-02-28T14:58:52;16.00;;;11.93;;
19030;SDS011;9648;51.130;13.978;2023-02-28T15:01:21;18.65;;;12.52;;
19030;SDS011;9648;51.130;13.978;2023-02-28T15:03:57;19.92;;;13.00;;
19030;SDS011;9648;51.130;13.978;2023-02-28T15:06:26;21.35;;;13.38;;
19030;SDS011;9648;51.130;13.978;2023-02-28T15:09:09;22.60;;;15.30;;
19030;SDS011;9648;51.130;13.978;2023-02-28T15:11:39;27.92;;;17.25;;
19030;SDS011;9648;51.130;13.978;2023-02-28T15:14:07;20.55;;;13.52;;
19030;SDS011;9648;51.130;13.978;2023-02-28T15:16:40;18.67;;;13.02;;
19030;SDS011;9648;51.130;13.978;2023-02-28T15:19:13;22.60;;;14.27;;
19030;SDS011;9648;51.130;13.978;2023-02-28T15:21:46;20.17;;;12.60;;
19030;SDS011;9648;51.130;13.978;2023-02-28T15:24:17;21.02;;;13.10;;
19030;SDS011;9648;51.130;13.978;2023-02-28T15:26:50;18.93;;;12.90;;
19030;SDS011;9648;51.130;13.978;2023-02-28T15:29:21;18.40;;;13.30;;